Aitutaki (NCAI)

Aerodrome — Elev 14
Cook Islands
S018.49.51.320 W159.45.51.240
Loading chart...

Current Weather

NCAI 140400Z AUTO 08007KT 040V130 //// ////// 24/22 Q1016

Published 7 days 12 hours 37 minutes ago

Airport Activity

Loading chart...
Loading chart...

Positions

CallsignRadio Name / Freq / Voice Room / TypeFrequencyVoice RoomType
NZZO_FSS Auckland Radio
128.900
nzzo_fss
128.900nzzo_fss
NSFA_CTR Faleolo Control
123.800
nsfa_ctr
123.800nsfa_ctr
NCRG_APP Rarotonga Control
118.100
ncrg_app
118.100ncrg_app
UNICOM NZZO UNICOM
122.800
unicom_nzzo
122.800unicom_nzzo